createdAt,value
2018-03-23T09:17:48.860Z,8.06
2018-03-23T09:18:14.357Z,8.05
2018-03-23T09:18:39.784Z,8.05
2018-03-23T09:19:05.310Z,8.09
2018-03-23T09:19:30.787Z,8.06
2018-03-23T09:19:56.250Z,8.08
2018-03-23T09:20:21.791Z,8.1
2018-03-23T09:20:47.256Z,8.18
2018-03-23T09:21:12.746Z,8.13
2018-03-23T09:21:38.221Z,8.2
2018-03-23T09:22:03.816Z,8.26
2018-03-23T09:22:29.307Z,8.19
2018-03-23T09:22:54.874Z,8.28
2018-03-23T09:23:20.421Z,8.3
2018-03-23T09:23:45.921Z,8.33
2018-03-23T09:24:11.437Z,8.3
2018-03-23T09:24:36.882Z,8.27
2018-03-23T09:25:02.363Z,8.31
2018-03-23T09:25:27.871Z,8.33
2018-03-23T09:25:53.308Z,8.34
2018-03-23T09:26:18.795Z,8.33
2018-03-23T09:26:44.342Z,8.37
2018-03-23T09:27:09.899Z,8.33
2018-03-23T09:27:35.298Z,8.41
2018-03-23T09:28:00.810Z,8.45
2018-03-23T09:28:26.398Z,8.3
2018-03-23T09:28:51.964Z,8.36
2018-03-23T09:29:17.397Z,8.34
2018-03-23T09:29:42.903Z,8.33
2018-03-23T09:30:08.449Z,8.34
2018-03-23T09:30:33.877Z,8.38
2018-03-23T09:30:59.445Z,8.42
2018-03-23T09:31:25.034Z,8.33
2018-03-23T09:31:50.382Z,8.46
2018-03-23T09:32:15.952Z,8.33
2018-03-23T09:32:41.411Z,8.45
2018-03-23T09:33:06.862Z,8.34
2018-03-23T09:33:32.419Z,8.41
2018-03-23T09:33:57.829Z,8.38
2018-03-23T09:34:23.338Z,8.46
2018-03-23T09:34:48.806Z,8.48
2018-03-23T09:35:14.280Z,8.46
2018-03-23T09:35:39.727Z,8.49
2018-03-23T09:36:05.225Z,8.55
2018-03-23T09:36:30.752Z,8.51
2018-03-23T09:36:56.153Z,8.52
2018-03-23T09:37:21.763Z,8.55
2018-03-23T09:37:47.289Z,8.51
2018-03-23T09:38:12.815Z,8.55
2018-03-23T09:38:38.329Z,8.6
2018-03-23T09:39:03.810Z,8.64
2018-03-23T09:39:29.247Z,8.53
2018-03-23T09:39:54.755Z,8.66
2018-03-23T09:40:20.260Z,8.69
2018-03-23T09:40:45.692Z,8.7
2018-03-23T09:41:11.178Z,8.76
2018-03-23T09:41:36.630Z,8.76
2018-03-23T09:42:02.119Z,8.73
2018-03-23T09:42:27.589Z,8.78
2018-03-23T09:42:53.072Z,8.78
2018-03-23T09:43:18.645Z,8.82
2018-03-23T09:43:44.163Z,8.78
2018-03-23T09:44:09.678Z,8.76
2018-03-23T09:44:35.125Z,8.84
2018-03-23T09:45:00.575Z,8.81
2018-03-23T09:45:26.136Z,8.81
2018-03-23T09:45:51.627Z,8.92
2018-03-23T09:46:17.061Z,8.73
2018-03-23T09:46:42.571Z,8.85
2018-03-23T09:47:08.051Z,8.82
2018-03-23T09:47:33.481Z,8.79
2018-03-23T09:47:59.008Z,8.82
2018-03-23T09:48:24.531Z,8.78
2018-03-23T09:48:50.035Z,8.76
2018-03-23T09:49:15.507Z,8.71
2018-03-23T09:49:40.989Z,8.71
2018-03-23T09:50:06.482Z,8.79
2018-03-23T09:50:31.930Z,8.7
2018-03-23T09:50:57.376Z,8.71
2018-03-23T09:51:22.880Z,8.71
2018-03-23T09:51:48.416Z,8.78
2018-03-23T09:52:13.899Z,8.78
2018-03-23T09:52:39.428Z,8.73
2018-03-23T09:53:04.882Z,8.71
2018-03-23T09:53:30.393Z,8.67
2018-03-23T09:53:55.826Z,8.76
2018-03-23T09:54:21.337Z,8.66
2018-03-23T09:54:46.864Z,8.63
2018-03-23T09:55:12.349Z,8.63
2018-03-23T09:55:37.826Z,8.58
2018-03-23T09:56:03.374Z,8.55
2018-03-23T09:56:28.843Z,8.49
2018-03-23T09:56:54.387Z,8.6
2018-03-23T09:57:19.863Z,8.49
2018-03-23T09:57:45.381Z,8.48
2018-03-23T09:58:10.862Z,8.49
2018-03-23T09:58:36.417Z,8.48
2018-03-23T09:59:01.819Z,8.52
2018-03-23T09:59:27.242Z,8.45
2018-03-23T09:59:52.750Z,8.49
2018-03-23T10:00:18.322Z,8.38
2018-03-23T10:00:43.772Z,8.33
2018-03-23T10:01:09.278Z,8.36
2018-03-23T10:01:34.716Z,8.38
2018-03-23T10:02:00.196Z,8.36
2018-03-23T10:02:25.630Z,8.34
2018-03-23T10:03:24.205Z,8.24
2018-03-23T10:03:49.714Z,8.3
2018-03-23T10:04:15.112Z,8.23
2018-03-23T10:04:40.638Z,8.26
2018-03-23T10:05:06.168Z,8.28
2018-03-23T10:05:31.655Z,8.31
2018-03-23T10:05:57.140Z,8.3
2018-03-23T10:06:22.645Z,8.3
2018-03-23T10:06:48.102Z,8.3
2018-03-23T10:07:13.626Z,8.27
2018-03-23T10:07:39.183Z,8.27
2018-03-23T10:08:04.636Z,8.34
2018-03-23T10:08:30.131Z,8.36
2018-03-23T10:08:55.667Z,8.38
2018-03-23T10:09:21.225Z,8.31
2018-03-23T10:09:46.725Z,8.36
2018-03-23T10:10:12.217Z,8.33
2018-03-23T10:10:37.677Z,8.44
2018-03-23T10:11:25.986Z,8.48
2018-03-23T10:11:51.497Z,8.51
2018-03-23T10:12:16.962Z,8.52
2018-03-23T10:12:42.474Z,8.61
2018-03-23T10:13:07.918Z,8.55
2018-03-23T10:13:33.406Z,8.6
2018-03-23T10:13:58.871Z,8.67
2018-03-23T10:14:24.328Z,8.67
2018-03-23T10:14:49.853Z,8.78
2018-03-23T10:15:15.285Z,8.71
2018-03-23T10:15:40.765Z,8.79
2018-03-23T10:16:06.194Z,8.76
2018-03-23T10:16:31.666Z,8.82
2018-03-23T10:16:57.215Z,8.85
2018-03-23T10:17:22.670Z,8.84
2018-03-23T10:17:48.171Z,8.85
2018-03-23T10:18:13.653Z,8.88
2018-03-23T10:18:39.164Z,8.91
2018-03-23T10:19:04.619Z,8.92
2018-03-23T10:19:30.143Z,8.91
2018-03-23T10:19:55.641Z,8.91
2018-03-23T10:20:21.092Z,8.92
2018-03-23T10:20:46.677Z,8.88
2018-03-23T10:21:12.147Z,8.85
2018-03-23T10:21:37.631Z,8.91
2018-03-23T10:22:03.045Z,8.89
2018-03-23T10:22:28.542Z,8.88
2018-03-23T10:22:54.019Z,8.82
2018-03-23T10:23:19.463Z,8.79
2018-03-23T10:23:45.014Z,8.82
2018-03-23T10:24:10.498Z,8.79
2018-03-23T10:24:36.026Z,8.76
2018-03-23T10:25:01.466Z,8.66
2018-03-23T10:25:27.115Z,8.76
2018-03-23T10:25:52.516Z,8.82
2018-03-23T10:26:18.018Z,8.73
2018-03-23T10:26:43.515Z,8.73
2018-03-23T10:27:09.053Z,8.78
2018-03-23T10:27:34.593Z,8.67
2018-03-23T10:28:00.130Z,8.78
2018-03-23T10:28:25.647Z,8.73
2018-03-23T10:28:51.151Z,8.79
2018-03-23T10:29:16.629Z,8.81
2018-03-23T10:29:42.147Z,8.7
2018-03-23T10:30:07.704Z,8.73
2018-03-23T10:30:33.222Z,8.78
2018-03-23T10:30:58.722Z,8.79
2018-03-23T10:31:24.228Z,8.76
2018-03-23T10:31:49.696Z,8.73
2018-03-23T10:32:15.191Z,8.79
2018-03-23T10:32:40.686Z,8.76
2018-03-23T10:33:06.158Z,8.89
2018-03-23T10:33:31.657Z,8.85
2018-03-23T10:33:57.234Z,8.94
2018-03-23T10:34:22.719Z,8.91
2018-03-23T10:34:48.218Z,8.89
2018-03-23T10:35:13.723Z,8.95
2018-03-23T10:35:39.216Z,9.03
2018-03-23T10:36:04.800Z,8.99
2018-03-23T10:36:30.225Z,9.11
2018-03-23T10:36:55.829Z,8.95
2018-03-23T10:37:21.339Z,9.08
2018-03-23T10:37:46.760Z,9.21
2018-03-23T10:38:12.260Z,9.16
2018-03-23T10:38:37.802Z,9.18
2018-03-23T10:39:03.349Z,9.19
2018-03-23T10:39:28.849Z,9.16
2018-03-23T10:39:54.374Z,9.25
2018-03-23T10:40:19.841Z,9.26
2018-03-23T10:40:45.403Z,9.29
2018-03-23T10:41:10.916Z,9.29
2018-03-23T10:41:36.384Z,9.46
2018-03-23T10:42:01.892Z,9.41
2018-03-23T10:42:27.408Z,9.37
2018-03-23T10:42:52.902Z,9.47
2018-03-23T10:43:18.406Z,9.44
2018-03-23T10:43:43.923Z,9.4
2018-03-23T10:44:09.432Z,9.37
2018-03-23T10:44:34.916Z,9.47
2018-03-23T10:45:00.425Z,9.47
2018-03-23T10:45:25.890Z,9.5
2018-03-23T10:45:51.375Z,9.5
2018-03-23T10:46:16.919Z,9.5
2018-03-23T10:46:42.461Z,9.54
2018-03-23T10:47:07.937Z,9.56
2018-03-23T10:47:33.436Z,9.58
2018-03-23T10:47:58.997Z,9.56
2018-03-23T10:48:24.426Z,9.58
2018-03-23T10:48:49.903Z,9.51
2018-03-23T10:49:15.532Z,9.55
2018-03-23T10:49:40.903Z,9.54
2018-03-23T10:50:06.437Z,9.44
2018-03-23T10:50:31.940Z,9.46
2018-03-23T10:50:57.483Z,9.54
2018-03-23T10:52:06.185Z,9.5
2018-03-23T10:52:31.712Z,9.48
2018-03-23T10:52:57.197Z,9.44
2018-03-23T10:53:22.672Z,9.43
2018-03-23T10:53:48.221Z,9.4
2018-03-23T10:54:13.733Z,9.4
2018-03-23T10:54:39.216Z,9.4
2018-03-23T10:55:04.716Z,9.32
2018-03-23T10:55:30.156Z,9.37
2018-03-23T10:55:55.733Z,9.32
2018-03-23T10:56:21.285Z,9.31
2018-03-23T10:56:46.798Z,9.36
2018-03-23T10:57:12.322Z,9.29
2018-03-23T10:57:37.813Z,9.46
2018-03-23T10:58:03.339Z,9.39
2018-03-23T10:58:28.826Z,9.43
2018-03-23T10:58:54.296Z,9.43
2018-03-23T10:59:19.799Z,9.44
2018-03-23T10:59:45.301Z,9.39
2018-03-23T11:00:10.868Z,9.41
2018-03-23T11:00:36.389Z,9.44
2018-03-23T11:01:01.901Z,9.48
2018-03-23T11:01:27.382Z,9.55
2018-03-23T11:01:52.892Z,9.61
2018-03-23T11:02:18.419Z,9.61
2018-03-23T11:02:43.947Z,9.58
2018-03-23T11:03:09.472Z,9.55
2018-03-23T11:03:34.963Z,9.64
2018-03-23T11:04:00.447Z,9.69
2018-03-23T11:04:25.932Z,9.69
2018-03-23T11:04:51.471Z,9.76
2018-03-23T11:05:17.066Z,9.74
2018-03-23T11:05:42.526Z,9.76
2018-03-23T11:06:08.018Z,9.8
2018-03-23T11:06:33.508Z,9.79
2018-03-23T11:07:32.141Z,9.89
2018-03-23T11:07:57.578Z,9.86
2018-03-23T11:08:23.145Z,9.91
2018-03-23T11:08:48.626Z,10.02
2018-03-23T11:09:14.079Z,9.98
2018-03-23T11:09:39.595Z,10.02
2018-03-23T11:10:05.118Z,10.02
2018-03-23T11:10:30.664Z,10.01
2018-03-23T11:10:56.201Z,10.04
2018-03-23T11:11:21.736Z,10.04
2018-03-23T11:11:47.271Z,10.15
2018-03-23T11:12:12.746Z,10.04
2018-03-23T11:12:38.235Z,10.09
2018-03-23T11:13:03.974Z,10.1
2018-03-23T11:13:29.255Z,10.13
2018-03-23T11:13:54.767Z,10.09
2018-03-23T11:14:20.261Z,10.15
2018-03-23T11:14:45.763Z,10.16
2018-03-23T11:15:11.320Z,10.23
2018-03-23T11:15:36.783Z,10.17
2018-03-23T11:16:02.220Z,10.26
2018-03-23T11:16:27.743Z,10.19
2018-03-23T11:16:53.285Z,10.22
2018-03-23T11:17:18.837Z,10.25
2018-03-23T11:17:44.226Z,10.28
2018-03-23T11:18:09.710Z,10.26
2018-03-23T11:18:35.239Z,10.25
2018-03-23T11:19:00.677Z,10.23
2018-03-23T11:19:26.139Z,10.34
2018-03-23T11:19:51.670Z,10.3
2018-03-23T11:20:17.176Z,10.33
2018-03-23T11:20:42.669Z,10.31
2018-03-23T11:21:08.205Z,10.33
2018-03-23T11:21:33.685Z,10.38
2018-03-23T11:21:59.256Z,10.48
2018-03-23T11:22:24.846Z,10.38
2018-03-23T11:22:50.395Z,10.44
2018-03-23T11:23:15.912Z,10.4
2018-03-23T11:23:41.404Z,10.46
2018-03-23T11:24:06.968Z,10.41
2018-03-23T11:24:32.598Z,10.41
2018-03-23T11:24:58.124Z,10.44
2018-03-23T11:25:23.591Z,10.46
2018-03-23T11:25:49.081Z,10.51
2018-03-23T11:26:14.576Z,10.46
2018-03-23T11:26:40.084Z,10.46
2018-03-23T11:27:05.566Z,10.49
2018-03-23T11:27:31.082Z,10.4
2018-03-23T11:27:56.558Z,10.34
2018-03-23T11:28:22.067Z,10.38
2018-03-23T11:28:47.547Z,10.4
2018-03-23T11:29:13.050Z,10.35
2018-03-23T11:29:38.541Z,10.37
2018-03-23T11:30:04.109Z,10.37
2018-03-23T11:30:29.573Z,10.46
2018-03-23T11:30:55.053Z,10.46
2018-03-23T11:31:20.596Z,10.46
2018-03-23T11:31:46.069Z,10.48
2018-03-23T11:32:11.601Z,10.41
2018-03-23T11:32:37.069Z,10.44
2018-03-23T11:33:02.611Z,10.46
2018-03-23T11:33:28.093Z,10.56
2018-03-23T11:33:53.615Z,10.57
2018-03-23T11:34:19.095Z,10.49
2018-03-23T11:34:44.595Z,10.44
2018-03-23T11:35:10.108Z,10.46
2018-03-23T11:35:35.604Z,10.53
2018-03-23T11:36:01.137Z,10.57
2018-03-23T11:36:26.611Z,10.59
2018-03-23T11:36:52.120Z,10.49
2018-03-23T11:37:17.605Z,10.59
2018-03-23T11:37:43.093Z,10.44
2018-03-23T11:38:08.624Z,10.56
2018-03-23T11:38:34.042Z,10.61
2018-03-23T11:38:59.572Z,10.54
2018-03-23T11:39:25.029Z,10.42
2018-03-23T11:39:50.506Z,10.51
2018-03-23T11:40:15.988Z,10.57
2018-03-23T11:40:41.491Z,10.48
2018-03-23T11:41:06.986Z,10.46
2018-03-23T11:41:32.482Z,10.49
2018-03-23T11:41:57.977Z,10.46
2018-03-23T11:42:23.500Z,10.38
2018-03-23T11:42:48.979Z,10.33
2018-03-23T11:43:14.554Z,10.3
2018-03-23T11:43:40.052Z,10.22
2018-03-23T11:44:05.537Z,10.22
2018-03-23T11:44:30.986Z,10.17
2018-03-23T11:44:56.474Z,10.22
2018-03-23T11:45:21.941Z,10.17
2018-03-23T11:45:47.552Z,10.17
2018-03-23T11:46:13.047Z,10.09
2018-03-23T11:46:38.462Z,10.09
2018-03-23T11:47:03.999Z,10.04
2018-03-23T11:47:29.550Z,10.02
2018-03-23T11:48:22.986Z,10.04
2018-03-23T11:48:48.469Z,9.89
2018-03-23T11:49:13.946Z,9.91
2018-03-23T11:49:39.418Z,9.91
2018-03-23T11:50:37.941Z,9.77
2018-03-23T11:51:03.665Z,9.86
2018-03-23T11:51:29.419Z,9.84
2018-03-23T11:52:17.736Z,9.84
2018-03-23T11:52:43.244Z,9.82
2018-03-23T11:53:08.771Z,9.8
2018-03-23T11:53:34.267Z,9.87
2018-03-23T11:53:59.726Z,9.84
2018-03-23T11:54:25.260Z,9.86
2018-03-23T11:54:50.760Z,9.84
2018-03-23T11:55:16.244Z,9.86
2018-03-23T11:55:42.731Z,9.86
2018-03-23T11:56:08.114Z,9.91
2018-03-23T11:56:33.757Z,9.89
2018-03-23T11:57:42.597Z,9.95
2018-03-23T11:58:08.059Z,9.95
2018-03-23T11:58:33.598Z,9.94
2018-03-23T11:58:59.086Z,9.89
2018-03-23T11:59:24.833Z,9.94
2018-03-23T11:59:50.449Z,9.92
2018-03-23T12:00:16.046Z,9.94
2018-03-23T12:00:41.610Z,9.92
2018-03-23T12:01:07.186Z,9.92
2018-03-23T12:01:32.702Z,9.97
2018-03-23T12:01:58.153Z,9.89
2018-03-23T12:02:23.691Z,9.95
2018-03-23T12:02:49.164Z,9.98
2018-03-23T12:03:14.650Z,9.97
2018-03-23T12:03:40.130Z,9.98
2018-03-23T12:04:28.682Z,9.99
2018-03-23T12:04:54.132Z,10.01
2018-03-23T12:05:19.612Z,9.97
2018-03-23T12:05:45.125Z,9.98
2018-03-23T12:06:10.638Z,9.98
2018-03-23T12:06:36.126Z,9.99
2018-03-23T12:07:01.624Z,10.04
2018-03-23T12:07:27.181Z,10.05
2018-03-23T12:07:52.631Z,9.99
2018-03-23T12:08:18.146Z,10.07
2018-03-23T12:08:43.654Z,10.05
2018-03-23T12:09:09.133Z,10.01
2018-03-23T12:09:34.604Z,10.04
2018-03-23T12:10:00.110Z,10.07
2018-03-23T12:10:25.584Z,9.98
2018-03-23T12:10:51.074Z,10.04
2018-03-23T12:11:16.541Z,10.07
2018-03-23T12:11:42.033Z,9.97
2018-03-23T12:12:07.525Z,9.98
2018-03-23T12:12:33.024Z,9.99
2018-03-23T12:12:58.506Z,10.02
2018-03-23T12:13:23.990Z,10.04
2018-03-23T12:13:49.486Z,9.99
2018-03-23T12:14:14.994Z,9.95
2018-03-23T12:14:40.452Z,10.04
2018-03-23T12:15:05.972Z,10.07
2018-03-23T12:15:31.444Z,10.04
2018-03-23T12:15:56.956Z,10.07
2018-03-23T12:16:22.409Z,9.98
2018-03-23T12:16:47.916Z,10.01
2018-03-23T12:17:13.405Z,9.94
2018-03-23T12:17:38.905Z,9.99
2018-03-23T12:18:04.359Z,9.95
2018-03-23T12:18:29.881Z,9.99
2018-03-23T12:18:55.487Z,9.99
2018-03-23T12:19:21.032Z,10.05
2018-03-23T12:19:46.517Z,10.02
2018-03-23T12:20:12.002Z,10.04
2018-03-23T12:20:37.505Z,10.1
2018-03-23T12:21:03.025Z,10.1
2018-03-23T12:21:28.540Z,10.13
2018-03-23T12:21:54.099Z,10.07
2018-03-23T12:22:19.522Z,10.12
2018-03-23T12:22:45.020Z,10.07
2018-03-23T12:23:10.514Z,10.09
2018-03-23T12:23:35.982Z,10.16
2018-03-23T12:24:01.525Z,10.09
2018-03-23T12:24:27.058Z,10.23
2018-03-23T12:24:52.586Z,10.16
2018-03-23T12:25:18.038Z,10.19
2018-03-23T12:25:43.624Z,10.2
2018-03-23T12:26:09.055Z,10.15
2018-03-23T12:26:34.548Z,10.26
2018-03-23T12:27:00.077Z,10.19
2018-03-23T12:27:25.590Z,10.25
2018-03-23T12:27:51.090Z,10.34
2018-03-23T12:28:16.587Z,10.19
2018-03-23T12:28:42.090Z,10.16
2018-03-23T12:29:07.573Z,10.2
2018-03-23T12:29:33.069Z,10.16
2018-03-23T12:29:58.563Z,10.28
2018-03-23T12:30:24.076Z,10.09
2018-03-23T12:30:49.585Z,10.07
2018-03-23T12:31:15.083Z,10.15
2018-03-23T12:31:40.586Z,10.1
2018-03-23T12:32:06.168Z,10.09
2018-03-23T12:32:31.665Z,10.05
2018-03-23T12:32:57.161Z,10.15
2018-03-23T12:33:22.666Z,10.12
2018-03-23T12:33:48.214Z,10.02
2018-03-23T12:34:13.729Z,10.02
2018-03-23T12:34:39.201Z,10.05
2018-03-23T12:35:04.727Z,9.97
2018-03-23T12:35:30.241Z,10.04
2018-03-23T12:35:55.745Z,10.01
2018-03-23T12:36:21.219Z,9.91
2018-03-23T12:36:46.706Z,9.92
2018-03-23T12:37:12.195Z,9.94
2018-03-23T12:37:37.735Z,9.92
2018-03-23T12:38:03.273Z,9.89
2018-03-23T12:38:28.728Z,9.89
2018-03-23T12:38:54.197Z,9.87
2018-03-23T12:39:19.684Z,9.91
2018-03-23T12:39:45.208Z,9.87
2018-03-23T12:40:10.701Z,9.82
2018-03-23T12:40:36.218Z,9.8
2018-03-23T12:41:01.760Z,9.77
2018-03-23T12:41:27.313Z,9.8
2018-03-23T12:41:52.862Z,9.72
2018-03-23T12:42:18.400Z,9.66
2018-03-23T12:42:43.805Z,9.77
2018-03-23T12:43:09.308Z,9.79
2018-03-23T12:43:34.860Z,9.77
2018-03-23T12:44:00.324Z,9.79
2018-03-23T12:44:25.803Z,9.76
2018-03-23T12:44:51.316Z,9.76
2018-03-23T12:45:16.840Z,9.65
2018-03-23T12:45:42.373Z,9.68
2018-03-23T12:46:07.807Z,9.68
2018-03-23T12:46:56.122Z,9.66
2018-03-23T12:47:21.630Z,9.68
2018-03-23T12:47:47.377Z,9.73
2018-03-23T12:48:12.903Z,9.72
2018-03-23T12:48:38.417Z,9.72
2018-03-23T12:49:03.932Z,9.66
2018-03-23T12:49:29.429Z,9.68
2018-03-23T12:49:54.893Z,9.65
2018-03-23T12:50:20.464Z,9.68
2018-03-23T12:50:46.352Z,9.68
2018-03-23T12:51:11.773Z,9.64
2018-03-23T12:51:37.286Z,9.69
2018-03-23T12:52:02.899Z,9.66
2018-03-23T12:52:28.372Z,9.77
2018-03-23T12:52:53.949Z,9.68
2018-03-23T12:53:19.424Z,9.68
2018-03-23T12:53:45.161Z,9.66
2018-03-23T12:54:10.709Z,9.77
2018-03-23T12:54:36.172Z,9.74
2018-03-23T12:55:02.474Z,9.68
2018-03-23T12:55:28.165Z,9.72
2018-03-23T12:55:53.709Z,9.72
2018-03-23T12:56:19.248Z,9.69
2018-03-23T12:56:44.732Z,9.69
2018-03-23T12:57:10.210Z,9.73
2018-03-23T12:57:35.769Z,9.59
2018-03-23T12:58:01.244Z,9.61
2018-03-23T12:58:26.766Z,9.64
2018-03-23T12:58:52.297Z,9.58
2018-03-23T12:59:17.782Z,9.58
2018-03-23T12:59:43.312Z,9.55
2018-03-23T13:00:08.808Z,9.58
2018-03-23T13:00:34.302Z,9.59
2018-03-23T13:00:59.801Z,9.51
2018-03-23T13:01:25.323Z,9.55
2018-03-23T13:01:50.782Z,9.51
2018-03-23T13:02:16.287Z,9.58
2018-03-23T13:02:41.770Z,9.56
2018-03-23T13:03:07.287Z,9.59
2018-03-23T13:03:32.803Z,9.62
2018-03-23T13:03:58.384Z,9.62
2018-03-23T13:04:23.877Z,9.51
2018-03-23T13:04:49.375Z,9.62
2018-03-23T13:05:14.833Z,9.64
2018-03-23T13:05:40.348Z,9.58
2018-03-23T13:06:05.860Z,9.59
2018-03-23T13:06:31.388Z,9.56
2018-03-23T13:06:56.868Z,9.61
2018-03-23T13:07:22.340Z,9.61
2018-03-23T13:07:47.842Z,9.58
2018-03-23T13:08:13.336Z,9.58
2018-03-23T13:08:38.870Z,9.56
2018-03-23T13:09:04.368Z,9.5
2018-03-23T13:09:29.889Z,9.48
2018-03-23T13:09:55.352Z,9.5
2018-03-23T13:10:20.819Z,9.48
2018-03-23T13:10:46.267Z,9.46
2018-03-23T13:11:11.796Z,9.36
2018-03-23T13:11:37.258Z,9.47
2018-03-23T13:12:02.745Z,9.5
2018-03-23T13:12:28.241Z,9.46
2018-03-23T13:12:53.745Z,9.47
2018-03-23T13:13:19.238Z,9.5
2018-03-23T13:13:44.771Z,9.43
2018-03-23T13:14:10.276Z,9.37
2018-03-23T13:14:35.771Z,9.43
2018-03-23T13:15:01.244Z,9.4
2018-03-23T13:15:26.731Z,9.39
2018-03-23T13:15:52.285Z,9.39
2018-03-23T13:16:17.756Z,9.37
2018-03-23T13:16:43.266Z,9.37
2018-03-23T13:17:08.764Z,9.28
2018-03-23T13:17:34.294Z,9.29
2018-03-23T13:17:59.789Z,9.32
2018-03-23T13:18:25.283Z,9.25
2018-03-23T13:18:50.816Z,9.23
2018-03-23T13:19:16.294Z,9.25
2018-03-23T13:19:41.747Z,9.26
2018-03-23T13:20:07.225Z,9.28
2018-03-23T13:20:32.737Z,9.18
2018-03-23T13:20:58.201Z,9.25
2018-03-23T13:21:23.696Z,9.21
2018-03-23T13:21:49.177Z,9.23
2018-03-23T13:22:14.680Z,9.19
2018-03-23T13:22:40.305Z,9.22
2018-03-23T13:23:05.737Z,9.08
2018-03-23T13:23:31.237Z,9.14
2018-03-23T13:23:56.828Z,9.19
2018-03-23T13:24:22.294Z,9.16
2018-03-23T13:24:47.750Z,9.16
2018-03-23T13:25:13.238Z,9.13
2018-03-23T13:25:38.873Z,9.22
2018-03-23T13:26:04.361Z,9.13
2018-03-23T13:26:29.911Z,9.21
2018-03-23T13:26:55.351Z,9.18
2018-03-23T13:27:20.853Z,9.19
2018-03-23T13:27:46.356Z,9.19
2018-03-23T13:28:11.854Z,9.16
2018-03-23T13:28:37.345Z,9.14
2018-03-23T13:29:02.850Z,9.08
2018-03-23T13:29:28.323Z,9.14
2018-03-23T13:29:53.789Z,9.14
2018-03-23T13:30:19.380Z,9.16
2018-03-23T13:30:44.886Z,9.21
2018-03-23T13:31:10.384Z,9.21
2018-03-23T13:31:35.909Z,9.16
2018-03-23T13:32:01.369Z,9.21
2018-03-23T13:32:26.865Z,9.22
2018-03-23T13:32:52.362Z,9.23
2018-03-23T13:33:17.877Z,9.28
2018-03-23T13:34:21.496Z,9.29
2018-03-23T13:34:47.130Z,9.32
2018-03-23T13:35:12.594Z,9.32
2018-03-23T13:35:38.097Z,9.28
2018-03-23T13:36:03.591Z,9.29
2018-03-23T13:36:29.094Z,9.26
2018-03-23T13:36:54.605Z,9.32
2018-03-23T13:37:20.054Z,9.4
2018-03-23T13:37:45.591Z,9.43
2018-03-23T13:38:11.099Z,9.34
2018-03-23T13:38:36.605Z,9.41
2018-03-23T13:39:02.115Z,9.43
2018-03-23T13:39:27.609Z,9.39
2018-03-23T13:39:53.042Z,9.37
2018-03-23T13:40:18.526Z,9.44
2018-03-23T13:40:44.019Z,9.36
2018-03-23T13:41:09.468Z,9.4
2018-03-23T13:41:34.994Z,9.41
2018-03-23T13:42:00.449Z,9.4
2018-03-23T13:42:25.935Z,9.43
2018-03-23T13:42:51.401Z,9.44
2018-03-23T13:43:16.899Z,9.34
2018-03-23T13:44:10.354Z,9.41
2018-03-23T13:44:35.865Z,9.46
2018-03-23T13:45:01.336Z,9.32
2018-03-23T13:45:26.955Z,9.4
2018-03-23T13:45:52.264Z,9.32
2018-03-23T13:46:17.754Z,9.31
2018-03-23T13:46:43.189Z,9.29
2018-03-23T13:47:08.680Z,9.32
2018-03-23T13:47:34.195Z,9.34
2018-03-23T13:47:59.677Z,9.31
2018-03-23T13:48:25.205Z,9.32
2018-03-23T13:48:50.663Z,9.32
2018-03-23T13:49:16.132Z,9.28
2018-03-23T13:49:41.611Z,9.28
2018-03-23T13:50:07.185Z,9.26
2018-03-23T13:50:32.569Z,9.29
2018-03-23T13:50:58.044Z,9.26
2018-03-23T13:51:23.480Z,9.26
2018-03-23T13:51:48.967Z,9.26
2018-03-23T13:52:14.458Z,9.21
2018-03-23T13:52:39.951Z,9.18
2018-03-23T13:53:05.397Z,9.23
2018-03-23T13:53:30.906Z,9.19
2018-03-23T13:53:56.371Z,9.14
2018-03-23T13:54:21.900Z,9.18
2018-03-23T13:54:47.436Z,9.21
2018-03-23T13:55:12.914Z,9.19
2018-03-23T13:55:38.393Z,9.14
2018-03-23T13:56:03.888Z,9.21
2018-03-23T13:56:29.332Z,9.25
2018-03-23T13:56:54.876Z,9.21
2018-03-23T13:57:20.325Z,9.26
2018-03-23T13:57:45.811Z,9.25
2018-03-23T13:58:11.317Z,9.26
2018-03-23T13:58:36.811Z,9.25
2018-03-23T13:59:02.288Z,9.26
2018-03-23T13:59:27.791Z,9.23
2018-03-23T13:59:53.423Z,9.37
2018-03-23T14:00:18.857Z,9.32
2018-03-23T14:00:44.365Z,9.28
2018-03-23T14:01:09.774Z,9.34
2018-03-23T14:01:35.402Z,9.36
2018-03-23T14:02:00.721Z,9.32
2018-03-23T14:02:26.214Z,9.36
2018-03-23T14:02:51.736Z,9.32
2018-03-23T14:03:17.236Z,9.37
2018-03-23T14:03:42.721Z,9.36
2018-03-23T14:04:08.187Z,9.32
2018-03-23T14:04:33.707Z,9.29
2018-03-23T14:04:59.173Z,9.29
2018-03-23T14:05:24.677Z,9.32
2018-03-23T14:05:50.173Z,9.25
2018-03-23T14:06:15.591Z,9.32
2018-03-23T14:06:41.057Z,9.22
2018-03-23T14:07:06.522Z,9.26
2018-03-23T14:07:32.044Z,9.23
2018-03-23T14:07:57.474Z,9.25
2018-03-23T14:08:22.993Z,9.25
2018-03-23T14:08:48.425Z,9.28
2018-03-23T14:09:13.896Z,9.23
2018-03-23T14:09:39.436Z,9.23
2018-03-23T14:10:04.950Z,9.18
2018-03-23T14:10:30.493Z,9.11
2018-03-23T14:10:55.970Z,9.23
2018-03-23T14:11:21.431Z,9.21
2018-03-23T14:11:46.997Z,9.16
2018-03-23T14:12:12.517Z,9.16
2018-03-23T14:13:11.070Z,9.1
2018-03-23T14:13:36.559Z,9.08
2018-03-23T14:14:02.034Z,9.02
2018-03-23T14:14:27.511Z,9.16
2018-03-23T14:14:53.002Z,9.08
2018-03-23T14:15:18.499Z,9.11
2018-03-23T14:15:43.954Z,9.08
2018-03-23T14:16:09.510Z,8.95
2018-03-23T14:16:35.007Z,8.95
2018-03-23T14:17:00.478Z,8.95
2018-03-23T14:17:25.913Z,8.99
2018-03-23T14:17:51.447Z,8.92
2018-03-23T14:18:17.029Z,8.94
2018-03-23T14:18:42.483Z,9.03
2018-03-23T14:19:08.003Z,9.04
2018-03-23T14:19:33.479Z,8.97
2018-03-23T14:19:58.983Z,8.99
2018-03-23T14:20:24.502Z,8.94
2018-03-23T14:20:49.976Z,9
2018-03-23T14:21:15.675Z,8.99
2018-03-23T14:21:41.205Z,9.03
2018-03-23T14:22:06.690Z,9
2018-03-23T14:22:32.165Z,8.94
2018-03-23T14:22:57.691Z,9.04
2018-03-23T14:23:23.151Z,9.02
2018-03-23T14:23:48.581Z,9
2018-03-23T14:24:14.058Z,8.95
2018-03-23T14:24:39.540Z,9.04
2018-03-23T14:25:05.012Z,8.97
2018-03-23T14:25:30.478Z,8.89
2018-03-23T14:25:56.081Z,9.03
2018-03-23T14:26:21.559Z,9.04
2018-03-23T14:26:47.106Z,8.94
2018-03-23T14:27:12.566Z,8.99
2018-03-23T14:27:38.145Z,8.88
2018-03-23T14:28:03.871Z,9
2018-03-23T14:28:29.301Z,9
2018-03-23T14:28:54.883Z,9
2018-03-23T14:29:20.366Z,9
2018-03-23T14:29:45.861Z,9
2018-03-23T14:30:39.246Z,8.92
2018-03-23T14:31:04.751Z,8.99
2018-03-23T14:31:30.318Z,9.06
2018-03-23T14:31:55.814Z,9.06
2018-03-23T14:32:21.340Z,8.99
2018-03-23T14:32:46.807Z,9.02
2018-03-23T14:33:12.276Z,8.94
2018-03-23T14:33:37.767Z,9
2018-03-23T14:34:03.194Z,9.03
2018-03-23T14:34:28.769Z,8.94
2018-03-23T14:35:37.442Z,8.99
2018-03-23T14:36:02.966Z,8.99
2018-03-23T14:36:28.440Z,9.04
2018-03-23T14:36:53.897Z,9.02
2018-03-23T14:37:19.356Z,8.97
2018-03-23T14:37:44.791Z,8.97
2018-03-23T14:38:10.309Z,8.94
2018-03-23T14:38:35.764Z,9
2018-03-23T14:39:01.284Z,8.97
2018-03-23T14:39:26.830Z,8.92
2018-03-23T14:39:52.325Z,9.02
2018-03-23T14:40:17.791Z,9.02
2018-03-23T14:40:43.357Z,9.02
2018-03-23T14:41:08.786Z,9.02
2018-03-23T14:41:34.269Z,9
2018-03-23T14:41:59.781Z,9.02
2018-03-23T14:42:25.259Z,8.99
2018-03-23T14:42:50.793Z,8.89
2018-03-23T14:43:16.226Z,8.94
2018-03-23T14:43:41.725Z,8.94
2018-03-23T14:44:07.281Z,8.91
2018-03-23T14:44:32.756Z,8.95
2018-03-23T14:44:58.233Z,8.92
2018-03-23T14:45:23.744Z,8.95
2018-03-23T14:45:49.225Z,8.91
2018-03-23T14:46:14.741Z,8.87
2018-03-23T14:46:40.219Z,8.87
2018-03-23T14:47:05.668Z,8.91
2018-03-23T14:47:31.171Z,8.91
2018-03-23T14:47:56.704Z,8.87
2018-03-23T14:48:22.183Z,8.84
2018-03-23T14:48:47.719Z,8.88
2018-03-23T14:49:13.229Z,8.79
2018-03-23T14:49:38.674Z,8.82
2018-03-23T14:50:04.148Z,8.82
2018-03-23T14:50:29.648Z,8.84
2018-03-23T14:50:55.152Z,8.91
2018-03-23T14:51:20.627Z,8.85
2018-03-23T14:51:46.137Z,8.88
2018-03-23T14:52:11.598Z,8.78
2018-03-23T14:52:37.075Z,8.78
2018-03-23T14:53:02.797Z,8.82
2018-03-23T14:53:28.448Z,8.79
2018-03-23T14:53:53.986Z,8.74
2018-03-23T14:54:19.542Z,8.76
2018-03-23T14:55:15.037Z,8.87
2018-03-23T14:55:40.545Z,8.84
2018-03-23T14:56:06.004Z,8.81
2018-03-23T14:56:31.493Z,8.82
2018-03-23T14:56:56.983Z,8.87
2018-03-23T14:57:22.437Z,8.88
2018-03-23T14:57:47.946Z,8.81
2018-03-23T14:58:13.440Z,8.87
2018-03-23T14:58:38.889Z,8.78
2018-03-23T14:59:04.433Z,8.85
2018-03-23T14:59:29.871Z,8.84
2018-03-23T14:59:55.405Z,8.85
2018-03-23T15:00:20.897Z,8.88
2018-03-23T15:00:46.398Z,8.85
2018-03-23T15:01:11.927Z,8.91
2018-03-23T15:01:37.568Z,8.85
2018-03-23T15:02:03.044Z,8.88
2018-03-23T15:02:28.628Z,8.91
2018-03-23T15:02:54.119Z,8.89
2018-03-23T15:03:19.569Z,8.88
2018-03-23T15:03:45.102Z,8.91
2018-03-23T15:04:10.588Z,8.91
2018-03-23T15:04:36.050Z,8.95